createdAt,value
2019-05-17T00:00:47.477Z,99.90
2019-05-17T00:03:18.560Z,99.90
2019-05-17T00:05:47.842Z,99.90
2019-05-17T00:08:29.788Z,99.90
2019-05-17T00:10:48.358Z,99.90
2019-05-17T00:13:17.649Z,99.90
2019-05-17T00:15:47.446Z,99.90
2019-05-17T00:18:17.341Z,99.90
2019-05-17T00:20:46.880Z,99.90
2019-05-17T00:23:17.413Z,99.90
2019-05-17T00:25:48.430Z,99.90
2019-05-17T00:28:17.721Z,99.90
2019-05-17T00:30:47.009Z,99.90
2019-05-17T00:33:16.921Z,99.90
2019-05-17T00:35:47.009Z,99.90
2019-05-17T00:38:17.864Z,99.90
2019-05-17T00:40:47.410Z,99.90
2019-05-17T00:43:17.034Z,99.90
2019-05-17T00:45:46.832Z,99.90
2019-05-17T00:48:17.241Z,99.90
2019-05-17T00:50:53.127Z,99.90
2019-05-17T00:53:18.117Z,99.90
2019-05-17T00:55:47.389Z,99.90
2019-05-17T00:58:17.432Z,99.90
2019-05-17T01:00:47.853Z,99.90
2019-05-17T01:03:18.381Z,99.90
2019-05-17T01:05:47.998Z,99.90
2019-05-17T01:08:18.349Z,99.90
2019-05-17T01:10:47.637Z,99.90
2019-05-17T01:13:17.327Z,99.90
2019-05-17T01:15:47.355Z,99.90
2019-05-17T01:18:16.920Z,99.90
2019-05-17T01:20:47.420Z,99.90
2019-05-17T01:23:16.877Z,99.90
2019-05-17T01:25:48.026Z,99.90
2019-05-17T01:28:17.134Z,99.90
2019-05-17T01:30:46.770Z,99.90
2019-05-17T01:33:17.146Z,99.90
2019-05-17T01:35:46.776Z,99.90
2019-05-17T01:38:17.789Z,99.90
2019-05-17T01:40:47.279Z,99.90
2019-05-17T01:43:16.777Z,99.90
2019-05-17T01:45:48.043Z,99.90
2019-05-17T01:48:18.466Z,99.90
2019-05-17T01:50:47.753Z,99.90
2019-05-17T01:53:17.323Z,99.90
2019-05-17T01:55:47.683Z,99.90
2019-05-17T01:58:16.957Z,99.90
2019-05-17T02:00:46.632Z,99.90
2019-05-17T02:03:17.347Z,99.90
2019-05-17T02:05:47.394Z,99.90
2019-05-17T02:08:17.153Z,99.90
2019-05-17T02:10:46.638Z,99.90
2019-05-17T02:13:16.549Z,99.90
2019-05-17T02:15:46.983Z,99.90
2019-05-17T02:18:17.399Z,99.90
2019-05-17T02:20:46.831Z,99.90
2019-05-17T02:23:17.427Z,99.90
2019-05-17T02:25:47.288Z,99.90
2019-05-17T02:28:17.050Z,99.90
2019-05-17T02:30:46.465Z,99.90
2019-05-17T02:33:16.117Z,99.90
2019-05-17T02:35:45.663Z,99.90
2019-05-17T02:38:14.938Z,99.90
2019-05-17T02:40:44.224Z,99.90
2019-05-17T02:43:13.738Z,99.90
2019-05-17T02:45:43.627Z,99.90
2019-05-17T02:48:13.507Z,99.90
2019-05-17T02:50:47.967Z,99.90
2019-05-17T02:53:15.472Z,99.90
2019-05-17T02:55:44.758Z,99.90
2019-05-17T02:58:14.047Z,99.90
2019-05-17T03:00:44.277Z,99.90
2019-05-17T03:03:13.887Z,99.90
2019-05-17T03:05:43.353Z,99.90
2019-05-17T03:08:13.037Z,99.90
2019-05-17T03:10:43.382Z,99.90
2019-05-17T03:13:15.368Z,99.90
2019-05-17T03:15:44.755Z,99.90
2019-05-17T03:18:14.435Z,99.90
2019-05-17T03:20:44.043Z,99.90
2019-05-17T03:23:13.321Z,99.90
2019-05-17T03:25:43.952Z,99.90
2019-05-17T03:28:14.007Z,99.90
2019-05-17T03:30:46.801Z,99.90
2019-05-17T03:33:16.487Z,99.90
2019-05-17T03:35:48.059Z,99.90
2019-05-17T03:38:17.340Z,99.90
2019-05-17T03:41:07.435Z,99.90
2019-05-17T03:43:18.313Z,99.90
2019-05-17T03:45:53.153Z,99.90
2019-05-17T03:48:22.200Z,99.90
2019-05-17T03:50:53.091Z,99.90
2019-05-17T03:53:23.069Z,99.90
2019-05-17T03:55:53.951Z,99.90
2019-05-17T03:58:23.942Z,99.90
2019-05-17T04:00:53.747Z,99.90
2019-05-17T04:03:23.372Z,99.90
2019-05-17T04:05:53.221Z,99.90
2019-05-17T04:08:23.083Z,99.90
2019-05-17T04:10:53.098Z,99.90
2019-05-17T04:13:23.683Z,99.90
2019-05-17T04:15:53.334Z,99.90
2019-05-17T04:18:23.539Z,99.90
2019-05-17T04:20:53.097Z,99.90
2019-05-17T04:23:23.579Z,99.90
2019-05-17T04:25:53.354Z,99.90
2019-05-17T04:28:23.296Z,99.90
2019-05-17T04:30:52.972Z,99.90
2019-05-17T04:33:23.506Z,99.90
2019-05-17T04:35:54.156Z,99.90
2019-05-17T04:38:24.151Z,99.90
2019-05-17T04:40:54.024Z,99.90
2019-05-17T04:43:23.761Z,99.90
2019-05-17T04:45:53.824Z,99.90
2019-05-17T04:48:23.620Z,99.90
2019-05-17T04:50:53.685Z,99.90
2019-05-17T04:53:23.701Z,99.90
2019-05-17T04:55:53.974Z,99.90
2019-05-17T04:58:23.969Z,99.90
2019-05-17T05:00:53.870Z,99.90
2019-05-17T05:03:23.440Z,99.90
2019-05-17T05:05:53.494Z,99.90
2019-05-17T05:08:24.277Z,99.90
2019-05-17T05:10:53.831Z,99.90
2019-05-17T05:13:23.279Z,99.90
2019-05-17T05:15:52.557Z,99.90
2019-05-17T05:18:22.362Z,99.90
2019-05-17T05:20:52.640Z,99.90
2019-05-17T05:23:23.884Z,99.90
2019-05-17T05:25:53.483Z,99.90
2019-05-17T05:28:25.387Z,99.90
2019-05-17T05:30:54.675Z,99.90
2019-05-17T05:33:23.970Z,99.90
2019-05-17T05:35:54.744Z,99.90
2019-05-17T05:38:24.058Z,99.90
2019-05-17T05:40:53.657Z,99.90
2019-05-17T05:43:23.264Z,99.90
2019-05-17T05:45:53.615Z,99.90
2019-05-17T05:48:23.049Z,99.90
2019-05-17T05:50:54.128Z,99.90
2019-05-17T05:53:25.172Z,99.90
2019-05-17T05:55:54.462Z,99.90
2019-05-17T05:58:24.295Z,99.90
2019-05-17T06:00:53.608Z,99.90
2019-05-17T06:05:58.747Z,99.90
2019-05-17T06:08:28.055Z,99.90
2019-05-17T06:10:57.341Z,99.90
2019-05-17T06:13:26.773Z,99.90
2019-05-17T06:15:56.093Z,99.90
2019-05-17T06:18:25.385Z,99.90
2019-05-17T06:20:54.704Z,99.90
2019-05-17T06:23:24.961Z,99.90
2019-05-17T06:25:54.276Z,99.90
2019-05-17T06:28:23.580Z,99.90
2019-05-17T06:33:42.765Z,99.90
2019-05-17T06:36:13.692Z,99.90
2019-05-17T06:38:43.440Z,99.90
2019-05-17T06:41:13.026Z,99.90
2019-05-17T06:43:44.153Z,99.90
2019-05-17T06:46:14.828Z,99.90
2019-05-17T06:48:44.114Z,99.90
2019-05-17T06:51:13.735Z,99.90
2019-05-17T06:53:43.657Z,99.90
2019-05-17T06:56:13.351Z,99.90
2019-05-17T06:58:42.661Z,99.90
2019-05-17T07:01:11.971Z,99.90
2019-05-17T07:03:41.551Z,99.90
2019-05-17T07:06:12.505Z,99.70
2019-05-17T07:08:41.805Z,99.90
2019-05-17T07:11:11.107Z,99.30
2019-05-17T07:13:40.709Z,99.10
2019-05-17T07:16:10.332Z,99.40
2019-05-17T07:18:40.090Z,99.20
2019-05-17T07:21:10.108Z,99.00
2019-05-17T07:23:40.268Z,98.80
2019-05-17T07:26:12.047Z,99.00
2019-05-17T07:28:40.874Z,98.70
2019-05-17T07:31:10.274Z,98.40
2019-05-17T07:33:39.953Z,98.70
2019-05-17T07:36:10.168Z,98.70
2019-05-17T07:38:39.773Z,98.90
2019-05-17T07:41:10.080Z,97.80
2019-05-17T07:43:40.633Z,96.50
2019-05-17T07:46:10.159Z,97.40
2019-05-17T07:48:41.171Z,96.50
2019-05-17T07:51:10.489Z,97.50
2019-05-17T07:53:40.183Z,97.40
2019-05-17T07:56:10.288Z,96.40
2019-05-17T07:58:40.447Z,96.90
2019-05-17T08:01:11.099Z,97.70
2019-05-17T08:03:40.768Z,97.40
2019-05-17T08:06:10.715Z,97.50
2019-05-17T08:08:40.965Z,97.30
2019-05-17T08:11:10.785Z,97.50
2019-05-17T08:13:40.162Z,97.60
2019-05-17T08:16:10.346Z,97.20
2019-05-17T08:18:40.343Z,97.80
2019-05-17T08:21:10.371Z,97.60
2019-05-17T08:23:42.970Z,96.80
2019-05-17T08:26:12.574Z,96.40
2019-05-17T08:28:43.222Z,96.40
2019-05-17T08:31:12.816Z,96.10
2019-05-17T08:33:42.104Z,96.70
2019-05-17T08:36:11.410Z,96.10
2019-05-17T08:38:40.721Z,96.40
2019-05-17T08:41:10.623Z,95.60
2019-05-17T08:43:46.567Z,95.80
2019-05-17T08:46:11.795Z,95.40
2019-05-17T08:48:41.112Z,95.20
2019-05-17T08:51:10.902Z,95.40
2019-05-17T08:53:40.281Z,95.80
2019-05-17T08:56:10.146Z,95.50
2019-05-17T08:58:40.324Z,96.00
2019-05-17T09:01:11.220Z,96.50
2019-05-17T09:03:41.368Z,96.20
2019-05-17T09:06:12.654Z,96.90
2019-05-17T09:08:42.482Z,97.10
2019-05-17T09:11:12.095Z,96.60
2019-05-17T09:13:54.378Z,96.60
2019-05-17T09:16:12.375Z,96.00
2019-05-17T09:18:41.757Z,96.10
2019-05-17T09:21:11.119Z,96.40
2019-05-17T09:23:40.412Z,96.90
2019-05-17T09:26:10.178Z,96.90
2019-05-17T09:28:39.579Z,97.40
2019-05-17T09:31:10.802Z,97.20
2019-05-17T09:33:40.673Z,97.70
2019-05-17T09:36:10.430Z,96.90
2019-05-17T09:38:40.437Z,97.30
2019-05-17T09:41:09.933Z,97.20
2019-05-17T09:43:40.592Z,96.70
2019-05-17T09:46:10.795Z,96.40
2019-05-17T09:48:40.193Z,97.40
2019-05-17T09:51:10.489Z,97.40
2019-05-17T09:53:40.675Z,98.20
2019-05-17T09:56:10.093Z,98.00
2019-05-17T09:58:39.812Z,97.90
2019-05-17T10:01:09.673Z,97.30
2019-05-17T10:03:39.788Z,97.90
2019-05-17T10:06:09.790Z,98.30
2019-05-17T10:08:40.547Z,98.90
2019-05-17T10:11:12.074Z,98.00
2019-05-17T10:13:41.061Z,98.90
2019-05-17T10:16:10.614Z,96.90
2019-05-17T10:18:40.203Z,97.20
2019-05-17T10:21:10.438Z,97.00
2019-05-17T10:23:41.308Z,95.90
2019-05-17T10:26:10.616Z,96.20
2019-05-17T10:28:40.872Z,96.20
2019-05-17T10:31:11.920Z,96.40
2019-05-17T10:33:41.496Z,93.80
2019-05-17T10:36:11.380Z,93.60
2019-05-17T10:38:40.684Z,93.80
2019-05-17T10:41:10.290Z,95.10
2019-05-17T10:43:39.995Z,95.10
2019-05-17T10:46:10.548Z,95.40
2019-05-17T10:48:41.173Z,96.00
2019-05-17T10:51:13.265Z,96.40
2019-05-17T10:53:42.209Z,97.30
2019-05-17T10:56:11.508Z,97.50
2019-05-17T10:58:41.056Z,97.20
2019-05-17T11:01:10.470Z,97.80
2019-05-17T11:03:39.926Z,99.00
2019-05-17T11:06:11.001Z,97.90
2019-05-17T11:08:40.546Z,90.30
2019-05-17T11:11:10.286Z,85.20
2019-05-17T11:13:59.000Z,89.70
2019-05-17T11:16:28.560Z,91.80
2019-05-17T11:18:57.860Z,91.80
2019-05-17T11:21:27.460Z,92.10
2019-05-17T11:23:57.097Z,93.40
2019-05-17T11:26:26.363Z,95.20
2019-05-17T11:28:55.998Z,95.40
2019-05-17T11:31:25.457Z,96.20
2019-05-17T11:33:54.765Z,95.60
2019-05-17T11:36:24.449Z,96.10
2019-05-17T11:38:53.769Z,98.00
2019-05-17T11:41:23.415Z,96.50
2019-05-17T11:43:52.705Z,95.40
2019-05-17T11:46:35.364Z,94.60
2019-05-17T11:48:53.054Z,94.10
2019-05-17T11:51:22.344Z,93.90
2019-05-17T11:53:51.640Z,93.30
2019-05-17T11:56:21.021Z,93.80
2019-05-17T11:58:50.304Z,93.30
2019-05-17T12:01:19.614Z,94.10
2019-05-17T12:03:49.163Z,94.00
2019-05-17T12:06:18.465Z,94.00
2019-05-17T12:08:47.999Z,94.50
2019-05-17T12:11:18.919Z,92.80
2019-05-17T12:13:48.215Z,93.30
2019-05-17T12:16:17.843Z,92.80
2019-05-17T12:18:47.142Z,91.70
2019-05-17T12:21:16.750Z,93.10
2019-05-17T12:23:46.042Z,92.40
2019-05-17T12:26:15.673Z,92.50
2019-05-17T12:28:45.267Z,93.30
2019-05-17T12:31:14.865Z,92.80
2019-05-17T12:33:44.175Z,92.60
2019-05-17T12:36:13.781Z,92.90
2019-05-17T12:38:43.097Z,93.30
2019-05-17T12:41:12.706Z,91.80
2019-05-17T12:43:42.013Z,91.20
2019-05-17T12:46:11.309Z,91.00
2019-05-17T12:48:40.600Z,92.20
2019-05-17T12:51:09.901Z,91.20
2019-05-17T12:53:39.234Z,91.70
2019-05-17T12:56:08.581Z,91.00
2019-05-17T12:58:37.885Z,90.00
2019-05-17T13:01:07.186Z,90.50
2019-05-17T13:03:39.614Z,89.20
2019-05-17T13:06:08.898Z,88.50
2019-05-17T13:08:38.772Z,87.20
2019-05-17T13:11:08.074Z,87.70
2019-05-17T13:13:37.702Z,87.30
2019-05-17T13:16:17.513Z,86.60
2019-05-17T13:18:39.118Z,86.20
2019-05-17T13:21:08.406Z,87.00
2019-05-17T13:23:38.795Z,84.70
2019-05-17T13:28:56.997Z,85.20
2019-05-17T13:31:26.575Z,84.20
2019-05-17T13:33:55.872Z,82.60
2019-05-17T13:36:25.462Z,82.30
2019-05-17T13:38:55.164Z,82.80
2019-05-17T13:41:24.905Z,83.10
2019-05-17T13:43:54.726Z,82.00
2019-05-17T13:46:32.815Z,82.70
2019-05-17T13:48:55.474Z,82.00
2019-05-17T13:51:24.776Z,83.60
2019-05-17T13:53:54.375Z,81.70
2019-05-17T13:56:23.692Z,82.30
2019-05-17T13:58:53.023Z,81.40
2019-05-17T14:01:22.425Z,80.70
2019-05-17T14:03:51.762Z,82.00
2019-05-17T14:06:21.115Z,82.00
2019-05-17T14:08:50.692Z,80.70
2019-05-17T14:11:19.971Z,81.20
2019-05-17T14:13:49.269Z,81.60
2019-05-17T14:16:18.894Z,81.20
2019-05-17T14:18:48.190Z,81.30
2019-05-17T14:21:17.811Z,81.70
2019-05-17T14:23:47.426Z,82.30
2019-05-17T14:26:16.995Z,81.00
2019-05-17T14:28:46.312Z,80.10
2019-05-17T14:31:15.602Z,81.00
2019-05-17T14:33:46.122Z,80.70
2019-05-17T14:36:15.762Z,80.60
2019-05-17T14:38:45.051Z,80.60
2019-05-17T14:41:14.342Z,81.80
2019-05-17T14:43:43.638Z,80.20
2019-05-17T14:46:12.994Z,80.50
2019-05-17T14:48:42.681Z,79.30
2019-05-17T14:51:12.293Z,79.50
2019-05-17T14:53:41.576Z,80.40
2019-05-17T14:56:10.885Z,79.90
2019-05-17T14:58:40.174Z,78.90
2019-05-17T15:01:09.470Z,79.80
2019-05-17T15:03:38.762Z,79.70
2019-05-17T15:06:08.077Z,80.10
2019-05-17T15:08:37.344Z,79.70
2019-05-17T15:11:07.928Z,80.00
2019-05-17T15:13:37.216Z,80.40
2019-05-17T15:16:06.831Z,80.50
2019-05-17T15:18:36.118Z,80.80
2019-05-17T15:21:05.756Z,80.80
2019-05-17T15:23:35.355Z,80.90
2019-05-17T15:26:04.784Z,80.90
2019-05-17T15:28:34.369Z,81.10
2019-05-17T15:31:04.013Z,81.60
2019-05-17T15:33:33.304Z,81.60
2019-05-17T15:36:02.941Z,81.10
2019-05-17T15:38:32.260Z,80.50
2019-05-17T15:41:01.918Z,81.30
2019-05-17T15:43:31.511Z,80.80
2019-05-17T15:46:00.899Z,79.70
2019-05-17T15:48:31.267Z,80.10
2019-05-17T15:51:00.834Z,80.60
2019-05-17T15:53:30.442Z,81.00
2019-05-17T15:56:00.056Z,80.30
2019-05-17T15:58:29.665Z,79.40
2019-05-17T16:00:59.271Z,78.50
2019-05-17T16:03:28.567Z,79.20
2019-05-17T16:05:58.185Z,79.20
2019-05-17T16:08:29.666Z,79.10
2019-05-17T16:10:58.564Z,79.40
2019-05-17T16:13:27.876Z,78.10
2019-05-17T16:15:57.183Z,77.80
2019-05-17T16:18:39.098Z,78.50
2019-05-17T16:21:08.460Z,78.60
2019-05-17T16:23:38.043Z,77.80
2019-05-17T16:26:07.331Z,78.70
2019-05-17T16:28:36.646Z,79.40
2019-05-17T16:31:05.939Z,79.30
2019-05-17T16:33:35.275Z,78.80
2019-05-17T16:36:04.846Z,79.50
2019-05-17T16:38:34.159Z,79.60
2019-05-17T16:41:03.451Z,78.40
2019-05-17T16:43:32.740Z,78.20
2019-05-17T16:46:02.243Z,79.00
2019-05-17T16:48:32.675Z,79.20
2019-05-17T16:51:03.010Z,79.60
2019-05-17T16:53:32.619Z,79.00
2019-05-17T16:56:01.915Z,79.50
2019-05-17T16:58:31.222Z,79.50
2019-05-17T17:01:03.515Z,79.80
2019-05-17T17:03:43.815Z,79.60
2019-05-17T17:06:02.937Z,79.20
2019-05-17T17:08:32.718Z,79.90
2019-05-17T17:11:02.169Z,79.50
2019-05-17T17:13:33.377Z,79.70
2019-05-17T17:16:02.747Z,79.20
2019-05-17T17:18:32.796Z,79.90
2019-05-17T17:21:02.079Z,80.10
2019-05-17T17:23:32.466Z,80.00
2019-05-17T17:26:01.734Z,79.50
2019-05-17T17:28:31.045Z,79.00
2019-05-17T17:31:00.459Z,79.80
2019-05-17T17:33:29.758Z,79.60
2019-05-17T17:35:59.040Z,79.60
2019-05-17T17:38:28.846Z,79.80
2019-05-17T17:40:58.131Z,79.80
2019-05-17T17:43:27.754Z,79.90
2019-05-17T17:45:57.035Z,80.30
2019-05-17T17:48:26.797Z,80.50
2019-05-17T17:50:56.399Z,80.90
2019-05-17T17:53:25.697Z,80.50
2019-05-17T17:55:54.992Z,81.10
2019-05-17T17:58:25.338Z,81.10
2019-05-17T18:00:54.736Z,81.10
2019-05-17T18:03:24.022Z,81.00
2019-05-17T18:05:53.318Z,82.00
2019-05-17T18:08:23.034Z,81.60
2019-05-17T18:10:52.578Z,81.40
2019-05-17T18:13:21.850Z,82.10
2019-05-17T18:15:51.151Z,81.90
2019-05-17T18:18:20.500Z,82.00
2019-05-17T18:20:49.797Z,82.20
2019-05-17T18:23:23.188Z,82.10
2019-05-17T18:25:50.454Z,82.40
2019-05-17T18:28:19.794Z,82.30
2019-05-17T18:30:49.408Z,82.60
2019-05-17T18:33:39.647Z,82.80
2019-05-17T18:36:10.942Z,82.70
2019-05-17T18:38:40.842Z,82.80
2019-05-17T18:41:10.181Z,82.30
2019-05-17T18:43:39.592Z,82.50
2019-05-17T18:46:09.164Z,82.80
2019-05-17T18:48:38.678Z,82.70
2019-05-17T18:51:08.265Z,83.00
2019-05-17T18:53:37.600Z,83.30
2019-05-17T18:56:07.194Z,83.40
2019-05-17T18:58:39.191Z,83.50
2019-05-17T19:01:07.511Z,83.80
2019-05-17T19:03:37.141Z,83.90
2019-05-17T19:06:06.509Z,84.10
2019-05-17T19:08:36.045Z,84.20
2019-05-17T19:11:05.935Z,84.50
2019-05-17T19:13:35.575Z,84.50
2019-05-17T19:16:05.288Z,84.60
2019-05-17T19:18:34.566Z,84.70
2019-05-17T19:21:03.886Z,84.90
2019-05-17T19:23:33.492Z,84.90
2019-05-17T19:26:02.961Z,85.00
2019-05-17T19:28:32.245Z,84.80
2019-05-17T19:31:01.551Z,85.30
2019-05-17T19:33:31.101Z,85.40
2019-05-17T19:36:00.725Z,85.70
2019-05-17T19:38:29.986Z,85.60
2019-05-17T19:40:59.626Z,86.00
2019-05-17T19:43:29.218Z,86.20
2019-05-17T19:45:58.516Z,86.00
2019-05-17T19:48:28.138Z,86.20
2019-05-17T19:50:57.546Z,86.30
2019-05-17T19:53:27.247Z,86.50
2019-05-17T19:55:56.850Z,86.80
2019-05-17T19:58:26.140Z,86.90
2019-05-17T20:00:55.763Z,86.90
2019-05-17T20:03:25.116Z,87.10
2019-05-17T20:05:54.876Z,87.30
2019-05-17T20:08:24.162Z,87.60
2019-05-17T20:10:53.434Z,87.70
2019-05-17T20:13:22.708Z,87.50
2019-05-17T20:15:51.981Z,87.50
2019-05-17T20:18:21.588Z,87.50
2019-05-17T20:20:51.191Z,87.60
2019-05-17T20:23:20.476Z,87.70
2019-05-17T20:25:49.749Z,87.70
2019-05-17T20:28:19.077Z,87.70
2019-05-17T20:30:49.178Z,87.90
2019-05-17T20:33:18.482Z,87.80
2019-05-17T20:35:47.747Z,88.10
2019-05-17T20:38:18.402Z,88.20
2019-05-17T20:40:47.677Z,88.50
2019-05-17T20:43:16.978Z,88.70
2019-05-17T20:45:47.320Z,88.80
2019-05-17T20:48:16.882Z,89.00
2019-05-17T20:50:46.160Z,88.90
2019-05-17T20:53:18.755Z,89.00
2019-05-17T20:55:46.761Z,89.10
2019-05-17T20:58:16.054Z,89.00
2019-05-17T21:00:45.325Z,89.10
2019-05-17T21:03:14.942Z,89.00
2019-05-17T21:05:44.548Z,89.00
2019-05-17T21:08:14.165Z,89.30
2019-05-17T21:10:43.792Z,89.30
2019-05-17T21:13:13.064Z,89.30
2019-05-17T21:15:47.809Z,89.30
2019-05-17T21:18:13.387Z,89.50
2019-05-17T21:20:43.753Z,89.80
2019-05-17T21:23:13.039Z,89.90
2019-05-17T21:25:43.601Z,89.90
2019-05-17T21:28:12.918Z,90.00
2019-05-17T21:30:42.219Z,90.20
2019-05-17T21:33:11.778Z,90.20
2019-05-17T21:35:41.065Z,90.50
2019-05-17T21:38:10.337Z,90.40
2019-05-17T21:40:39.618Z,90.50
2019-05-17T21:43:08.893Z,90.50
2019-05-17T21:45:38.217Z,90.80
2019-05-17T21:48:07.462Z,90.70
2019-05-17T21:50:36.747Z,90.70
2019-05-17T21:53:06.286Z,90.50
2019-05-17T21:55:35.762Z,90.40
2019-05-17T21:58:05.038Z,90.70
2019-05-17T22:00:53.543Z,90.50
2019-05-17T22:03:22.893Z,90.70
2019-05-17T22:05:52.185Z,90.70
2019-05-17T22:08:21.535Z,90.80
2019-05-17T22:10:51.145Z,90.80
2019-05-17T22:13:20.435Z,90.70
2019-05-17T22:15:49.725Z,90.80
2019-05-17T22:18:19.266Z,90.80
2019-05-17T22:20:48.539Z,90.50
2019-05-17T22:23:17.818Z,90.30
2019-05-17T22:25:47.187Z,90.20
2019-05-17T22:28:16.767Z,90.30
2019-05-17T22:30:46.053Z,90.70
2019-05-17T22:33:15.329Z,91.00
2019-05-17T22:35:44.609Z,91.20
2019-05-17T22:38:14.055Z,91.10
2019-05-17T22:40:43.343Z,91.70
2019-05-17T22:43:12.889Z,91.80
2019-05-17T22:45:42.195Z,92.00
2019-05-17T22:48:11.474Z,92.10
2019-05-17T22:50:40.764Z,92.30
2019-05-17T22:53:10.045Z,92.50
2019-05-17T22:55:39.313Z,92.50
2019-05-17T22:58:08.603Z,92.70
2019-05-17T23:00:38.201Z,92.80
2019-05-17T23:03:07.551Z,93.00
2019-05-17T23:05:36.822Z,92.50
2019-05-17T23:08:06.102Z,92.40
2019-05-17T23:10:35.385Z,92.50
2019-05-17T23:13:04.669Z,92.50
2019-05-17T23:15:35.817Z,92.40
2019-05-17T23:18:05.161Z,92.40
2019-05-17T23:20:34.468Z,92.50
2019-05-17T23:23:03.750Z,92.50
2019-05-17T23:25:33.023Z,92.50
2019-05-17T23:28:02.555Z,92.50
2019-05-17T23:30:31.827Z,92.70
2019-05-17T23:33:01.158Z,92.40
2019-05-17T23:35:30.557Z,92.30
2019-05-17T23:37:59.841Z,92.30
2019-05-17T23:40:29.110Z,92.40
2019-05-17T23:42:58.669Z,92.50
2019-05-17T23:45:28.379Z,92.70
2019-05-17T23:47:57.665Z,92.80
2019-05-17T23:50:27.188Z,93.00
2019-05-17T23:52:56.469Z,93.00
2019-05-17T23:55:25.814Z,92.90
2019-05-17T23:57:55.395Z,92.70
